sensor_id;sensor_type;location;lat;lon;timestamp;P1;durP1;ratioP1;P2;durP2;ratioP2
42124;SDS011;27787;44.594;11.046;2024-03-29T00:01:12;24.17;;;13.68;;
42124;SDS011;27787;44.594;11.046;2024-03-29T00:03:56;22.27;;;12.68;;
42124;SDS011;27787;44.594;11.046;2024-03-29T00:06:40;28.77;;;12.48;;
42124;SDS011;27787;44.594;11.046;2024-03-29T00:09:24;25.30;;;13.73;;
42124;SDS011;27787;44.594;11.046;2024-03-29T00:12:08;24.40;;;12.18;;
42124;SDS011;27787;44.594;11.046;2024-03-29T00:14:52;21.00;;;12.05;;
42124;SDS011;27787;44.594;11.046;2024-03-29T00:17:37;19.88;;;12.32;;
42124;SDS011;27787;44.594;11.046;2024-03-29T00:20:20;22.20;;;12.57;;
42124;SDS011;27787;44.594;11.046;2024-03-29T00:23:05;23.35;;;12.63;;
42124;SDS011;27787;44.594;11.046;2024-03-29T00:25:49;24.10;;;13.20;;
42124;SDS011;27787;44.594;11.046;2024-03-29T00:28:33;24.02;;;12.75;;
42124;SDS011;27787;44.594;11.046;2024-03-29T00:31:17;22.08;;;12.82;;
42124;SDS011;27787;44.594;11.046;2024-03-29T00:34:01;22.45;;;12.32;;
42124;SDS011;27787;44.594;11.046;2024-03-29T00:36:45;24.77;;;12.85;;
42124;SDS011;27787;44.594;11.046;2024-03-29T00:39:29;21.40;;;12.80;;
42124;SDS011;27787;44.594;11.046;2024-03-29T00:42:13;21.33;;;12.70;;
42124;SDS011;27787;44.594;11.046;2024-03-29T00:44:58;21.35;;;12.68;;
42124;SDS011;27787;44.594;11.046;2024-03-29T00:47:42;23.10;;;12.55;;
42124;SDS011;27787;44.594;11.046;2024-03-29T00:50:26;25.75;;;14.15;;
42124;SDS011;27787;44.594;11.046;2024-03-29T00:53:10;24.10;;;13.25;;
42124;SDS011;27787;44.594;11.046;2024-03-29T00:55:54;23.05;;;13.27;;
42124;SDS011;27787;44.594;11.046;2024-03-29T00:58:38;26.75;;;15.25;;
42124;SDS011;27787;44.594;11.046;2024-03-29T01:01:22;26.23;;;14.38;;
42124;SDS011;27787;44.594;11.046;2024-03-29T01:04:06;26.08;;;14.70;;
42124;SDS011;27787;44.594;11.046;2024-03-29T01:06:50;24.90;;;13.25;;
42124;SDS011;27787;44.594;11.046;2024-03-29T01:09:34;30.17;;;14.15;;
42124;SDS011;27787;44.594;11.046;2024-03-29T01:12:18;26.23;;;14.60;;
42124;SDS011;27787;44.594;11.046;2024-03-29T01:15:03;26.10;;;13.57;;
42124;SDS011;27787;44.594;11.046;2024-03-29T01:17:48;24.08;;;12.70;;
42124;SDS011;27787;44.594;11.046;2024-03-29T01:20:32;29.38;;;13.23;;
42124;SDS011;27787;44.594;11.046;2024-03-29T01:23:16;26.33;;;13.43;;
42124;SDS011;27787;44.594;11.046;2024-03-29T01:26:00;25.33;;;14.30;;
42124;SDS011;27787;44.594;11.046;2024-03-29T01:28:44;23.08;;;13.65;;
42124;SDS011;27787;44.594;11.046;2024-03-29T01:31:28;30.10;;;13.57;;
42124;SDS011;27787;44.594;11.046;2024-03-29T01:34:12;26.13;;;14.25;;
42124;SDS011;27787;44.594;11.046;2024-03-29T01:36:57;29.65;;;13.80;;
42124;SDS011;27787;44.594;11.046;2024-03-29T01:39:41;25.02;;;14.13;;
42124;SDS011;27787;44.594;11.046;2024-03-29T01:42:25;24.42;;;13.57;;
42124;SDS011;27787;44.594;11.046;2024-03-29T01:45:09;26.85;;;14.70;;
42124;SDS011;27787;44.594;11.046;2024-03-29T01:47:53;28.20;;;15.48;;
42124;SDS011;27787;44.594;11.046;2024-03-29T01:50:37;27.52;;;15.05;;
42124;SDS011;27787;44.594;11.046;2024-03-29T01:53:22;24.17;;;13.77;;
42124;SDS011;27787;44.594;11.046;2024-03-29T01:56:07;23.70;;;13.88;;
42124;SDS011;27787;44.594;11.046;2024-03-29T01:58:53;23.77;;;13.38;;
42124;SDS011;27787;44.594;11.046;2024-03-29T02:01:40;27.20;;;14.68;;
42124;SDS011;27787;44.594;11.046;2024-03-29T02:04:26;25.00;;;12.88;;
42124;SDS011;27787;44.594;11.046;2024-03-29T02:07:10;28.20;;;13.77;;
42124;SDS011;27787;44.594;11.046;2024-03-29T02:09:55;23.33;;;13.45;;
42124;SDS011;27787;44.594;11.046;2024-03-29T02:12:39;22.48;;;13.30;;
42124;SDS011;27787;44.594;11.046;2024-03-29T02:15:23;24.38;;;14.00;;
42124;SDS011;27787;44.594;11.046;2024-03-29T02:18:07;26.33;;;13.63;;
42124;SDS011;27787;44.594;11.046;2024-03-29T02:20:52;23.00;;;13.02;;
42124;SDS011;27787;44.594;11.046;2024-03-29T02:23:37;26.95;;;15.27;;
42124;SDS011;27787;44.594;11.046;2024-03-29T02:26:26;32.45;;;15.05;;
42124;SDS011;27787;44.594;11.046;2024-03-29T02:29:14;26.15;;;14.82;;
42124;SDS011;27787;44.594;11.046;2024-03-29T02:31:59;29.25;;;14.55;;
42124;SDS011;27787;44.594;11.046;2024-03-29T02:34:43;25.10;;;14.05;;
42124;SDS011;27787;44.594;11.046;2024-03-29T02:37:27;30.05;;;14.75;;
42124;SDS011;27787;44.594;11.046;2024-03-29T02:40:11;26.42;;;14.15;;
42124;SDS011;27787;44.594;11.046;2024-03-29T02:42:55;29.38;;;14.30;;
42124;SDS011;27787;44.594;11.046;2024-03-29T02:45:40;29.73;;;16.17;;
42124;SDS011;27787;44.594;11.046;2024-03-29T02:48:24;25.60;;;14.20;;
42124;SDS011;27787;44.594;11.046;2024-03-29T02:51:08;25.38;;;14.80;;
42124;SDS011;27787;44.594;11.046;2024-03-29T02:53:52;27.23;;;13.93;;
42124;SDS011;27787;44.594;11.046;2024-03-29T02:56:36;26.23;;;14.70;;
42124;SDS011;27787;44.594;11.046;2024-03-29T02:59:20;30.95;;;15.75;;
42124;SDS011;27787;44.594;11.046;2024-03-29T03:02:04;29.42;;;16.33;;
42124;SDS011;27787;44.594;11.046;2024-03-29T03:04:48;30.80;;;16.05;;
42124;SDS011;27787;44.594;11.046;2024-03-29T03:07:32;27.25;;;15.05;;
42124;SDS011;27787;44.594;11.046;2024-03-29T03:10:36;29.23;;;14.65;;
42124;SDS011;27787;44.594;11.046;2024-03-29T03:13:40;25.08;;;13.90;;
42124;SDS011;27787;44.594;11.046;2024-03-29T03:16:24;24.30;;;13.98;;
42124;SDS011;27787;44.594;11.046;2024-03-29T03:19:08;28.05;;;14.50;;
42124;SDS011;27787;44.594;11.046;2024-03-29T03:21:52;27.63;;;13.27;;
42124;SDS011;27787;44.594;11.046;2024-03-29T03:24:36;21.15;;;12.07;;
42124;SDS011;27787;44.594;11.046;2024-03-29T03:27:20;24.38;;;13.30;;
42124;SDS011;27787;44.594;11.046;2024-03-29T03:30:04;27.30;;;14.48;;
42124;SDS011;27787;44.594;11.046;2024-03-29T03:32:49;22.37;;;12.27;;
42124;SDS011;27787;44.594;11.046;2024-03-29T03:35:33;23.75;;;12.48;;
42124;SDS011;27787;44.594;11.046;2024-03-29T03:38:17;24.85;;;12.65;;
42124;SDS011;27787;44.594;11.046;2024-03-29T03:41:01;20.35;;;11.77;;
42124;SDS011;27787;44.594;11.046;2024-03-29T03:43:46;23.45;;;11.88;;
42124;SDS011;27787;44.594;11.046;2024-03-29T03:46:30;21.88;;;12.25;;
42124;SDS011;27787;44.594;11.046;2024-03-29T03:49:14;22.70;;;12.48;;
42124;SDS011;27787;44.594;11.046;2024-03-29T03:51:58;24.45;;;13.27;;
42124;SDS011;27787;44.594;11.046;2024-03-29T03:54:42;24.13;;;13.25;;
42124;SDS011;27787;44.594;11.046;2024-03-29T03:57:26;27.08;;;14.27;;
42124;SDS011;27787;44.594;11.046;2024-03-29T04:00:10;20.85;;;12.35;;
42124;SDS011;27787;44.594;11.046;2024-03-29T04:02:58;21.73;;;12.25;;
42124;SDS011;27787;44.594;11.046;2024-03-29T04:05:43;23.10;;;12.63;;
42124;SDS011;27787;44.594;11.046;2024-03-29T04:08:27;23.75;;;12.95;;
42124;SDS011;27787;44.594;11.046;2024-03-29T04:11:11;24.88;;;13.60;;
42124;SDS011;27787;44.594;11.046;2024-03-29T04:13:55;27.77;;;13.68;;
42124;SDS011;27787;44.594;11.046;2024-03-29T04:16:39;31.77;;;13.73;;
42124;SDS011;27787;44.594;11.046;2024-03-29T04:19:22;35.47;;;13.27;;
42124;SDS011;27787;44.594;11.046;2024-03-29T04:22:06;28.15;;;14.07;;
42124;SDS011;27787;44.594;11.046;2024-03-29T04:24:51;25.05;;;13.43;;
42124;SDS011;27787;44.594;11.046;2024-03-29T04:27:35;23.65;;;12.88;;
42124;SDS011;27787;44.594;11.046;2024-03-29T04:30:20;27.83;;;12.90;;
42124;SDS011;27787;44.594;11.046;2024-03-29T04:33:04;24.85;;;12.85;;
42124;SDS011;27787;44.594;11.046;2024-03-29T04:35:56;20.58;;;12.07;;
42124;SDS011;27787;44.594;11.046;2024-03-29T04:38:41;22.17;;;12.65;;
42124;SDS011;27787;44.594;11.046;2024-03-29T04:41:25;34.67;;;12.40;;
42124;SDS011;27787;44.594;11.046;2024-03-29T04:44:11;30.48;;;12.27;;
42124;SDS011;27787;44.594;11.046;2024-03-29T04:46:57;21.15;;;11.45;;
42124;SDS011;27787;44.594;11.046;2024-03-29T04:49:41;22.90;;;12.35;;
42124;SDS011;27787;44.594;11.046;2024-03-29T04:52:26;21.63;;;11.93;;
42124;SDS011;27787;44.594;11.046;2024-03-29T04:55:10;21.95;;;11.93;;
42124;SDS011;27787;44.594;11.046;2024-03-29T04:57:54;21.38;;;11.60;;
42124;SDS011;27787;44.594;11.046;2024-03-29T05:00:38;19.83;;;10.68;;
42124;SDS011;27787;44.594;11.046;2024-03-29T05:03:22;20.70;;;11.77;;
42124;SDS011;27787;44.594;11.046;2024-03-29T05:06:07;21.63;;;12.00;;
42124;SDS011;27787;44.594;11.046;2024-03-29T05:08:51;25.77;;;12.02;;
42124;SDS011;27787;44.594;11.046;2024-03-29T05:11:35;19.55;;;11.30;;
42124;SDS011;27787;44.594;11.046;2024-03-29T05:14:19;22.17;;;12.43;;
42124;SDS011;27787;44.594;11.046;2024-03-29T05:17:06;22.48;;;12.32;;
42124;SDS011;27787;44.594;11.046;2024-03-29T05:19:56;19.90;;;11.98;;
42124;SDS011;27787;44.594;11.046;2024-03-29T05:22:41;20.52;;;12.20;;
42124;SDS011;27787;44.594;11.046;2024-03-29T05:25:25;26.63;;;13.55;;
42124;SDS011;27787;44.594;11.046;2024-03-29T05:28:09;22.65;;;13.00;;
42124;SDS011;27787;44.594;11.046;2024-03-29T05:30:54;16.45;;;10.45;;
42124;SDS011;27787;44.594;11.046;2024-03-29T05:33:39;20.60;;;12.18;;
42124;SDS011;27787;44.594;11.046;2024-03-29T05:36:24;20.73;;;12.05;;
42124;SDS011;27787;44.594;11.046;2024-03-29T05:39:08;21.92;;;13.18;;
42124;SDS011;27787;44.594;11.046;2024-03-29T05:41:52;23.58;;;13.25;;
42124;SDS011;27787;44.594;11.046;2024-03-29T05:44:36;24.75;;;13.63;;
42124;SDS011;27787;44.594;11.046;2024-03-29T05:47:20;26.70;;;13.82;;
42124;SDS011;27787;44.594;11.046;2024-03-29T05:50:04;26.85;;;13.55;;
42124;SDS011;27787;44.594;11.046;2024-03-29T05:52:49;29.83;;;11.77;;
42124;SDS011;27787;44.594;11.046;2024-03-29T05:55:34;22.38;;;12.32;;
42124;SDS011;27787;44.594;11.046;2024-03-29T05:58:18;34.35;;;13.38;;
42124;SDS011;27787;44.594;11.046;2024-03-29T06:01:04;41.85;;;13.15;;
42124;SDS011;27787;44.594;11.046;2024-03-29T06:03:49;28.50;;;12.73;;
42124;SDS011;27787;44.594;11.046;2024-03-29T06:06:39;36.97;;;13.55;;
42124;SDS011;27787;44.594;11.046;2024-03-29T06:09:23;28.08;;;13.60;;
42124;SDS011;27787;44.594;11.046;2024-03-29T06:12:07;26.60;;;13.23;;
42124;SDS011;27787;44.594;11.046;2024-03-29T06:14:55;27.23;;;13.68;;
42124;SDS011;27787;44.594;11.046;2024-03-29T06:17:57;23.73;;;12.68;;
42124;SDS011;27787;44.594;11.046;2024-03-29T06:20:42;27.85;;;13.77;;
42124;SDS011;27787;44.594;11.046;2024-03-29T06:23:25;25.83;;;13.45;;
42124;SDS011;27787;44.594;11.046;2024-03-29T06:26:09;34.72;;;14.52;;
42124;SDS011;27787;44.594;11.046;2024-03-29T06:28:54;28.85;;;13.85;;
42124;SDS011;27787;44.594;11.046;2024-03-29T06:31:38;31.63;;;14.10;;
42124;SDS011;27787;44.594;11.046;2024-03-29T06:34:22;28.83;;;13.15;;
42124;SDS011;27787;44.594;11.046;2024-03-29T06:37:06;25.95;;;13.38;;
42124;SDS011;27787;44.594;11.046;2024-03-29T06:39:51;32.50;;;13.13;;
42124;SDS011;27787;44.594;11.046;2024-03-29T06:42:35;29.70;;;13.32;;
42124;SDS011;27787;44.594;11.046;2024-03-29T06:45:19;32.30;;;14.00;;
42124;SDS011;27787;44.594;11.046;2024-03-29T06:48:03;29.50;;;15.02;;
42124;SDS011;27787;44.594;11.046;2024-03-29T06:50:48;31.52;;;14.45;;
42124;SDS011;27787;44.594;11.046;2024-03-29T06:53:33;30.13;;;13.93;;
42124;SDS011;27787;44.594;11.046;2024-03-29T06:56:17;33.38;;;14.85;;
42124;SDS011;27787;44.594;11.046;2024-03-29T06:59:01;32.90;;;14.20;;
42124;SDS011;27787;44.594;11.046;2024-03-29T07:01:45;33.85;;;15.05;;
42124;SDS011;27787;44.594;11.046;2024-03-29T07:04:31;34.88;;;15.65;;
42124;SDS011;27787;44.594;11.046;2024-03-29T07:07:15;30.15;;;13.93;;
42124;SDS011;27787;44.594;11.046;2024-03-29T07:09:59;27.42;;;13.77;;
42124;SDS011;27787;44.594;11.046;2024-03-29T07:12:43;35.13;;;15.45;;
42124;SDS011;27787;44.594;11.046;2024-03-29T07:15:27;32.60;;;15.23;;
42124;SDS011;27787;44.594;11.046;2024-03-29T07:18:12;36.80;;;16.55;;
42124;SDS011;27787;44.594;11.046;2024-03-29T07:20:56;32.25;;;14.90;;
42124;SDS011;27787;44.594;11.046;2024-03-29T07:23:40;33.25;;;15.25;;
42124;SDS011;27787;44.594;11.046;2024-03-29T07:26:24;38.40;;;16.38;;
42124;SDS011;27787;44.594;11.046;2024-03-29T07:29:08;39.58;;;16.35;;
42124;SDS011;27787;44.594;11.046;2024-03-29T07:31:52;36.28;;;17.02;;
42124;SDS011;27787;44.594;11.046;2024-03-29T07:34:36;36.45;;;15.13;;
42124;SDS011;27787;44.594;11.046;2024-03-29T07:37:22;37.35;;;16.30;;
42124;SDS011;27787;44.594;11.046;2024-03-29T07:40:07;38.35;;;14.68;;
42124;SDS011;27787;44.594;11.046;2024-03-29T07:42:52;33.60;;;15.95;;
42124;SDS011;27787;44.594;11.046;2024-03-29T07:45:36;34.22;;;16.08;;
42124;SDS011;27787;44.594;11.046;2024-03-29T07:48:20;37.33;;;15.85;;
42124;SDS011;27787;44.594;11.046;2024-03-29T07:51:05;38.47;;;16.20;;
42124;SDS011;27787;44.594;11.046;2024-03-29T07:53:49;31.60;;;14.80;;
42124;SDS011;27787;44.594;11.046;2024-03-29T07:56:33;34.92;;;15.52;;
42124;SDS011;27787;44.594;11.046;2024-03-29T07:59:17;32.53;;;14.60;;
42124;SDS011;27787;44.594;11.046;2024-03-29T08:04:47;33.67;;;13.38;;
42124;SDS011;27787;44.594;11.046;2024-03-29T08:07:32;31.33;;;13.48;;
42124;SDS011;27787;44.594;11.046;2024-03-29T08:10:16;33.25;;;13.75;;
42124;SDS011;27787;44.594;11.046;2024-03-29T08:13:00;26.05;;;12.07;;
42124;SDS011;27787;44.594;11.046;2024-03-29T08:15:44;32.65;;;12.60;;
42124;SDS011;27787;44.594;11.046;2024-03-29T08:18:28;20.50;;;11.30;;
42124;SDS011;27787;44.594;11.046;2024-03-29T08:21:14;23.13;;;12.52;;
42124;SDS011;27787;44.594;11.046;2024-03-29T08:23:59;24.13;;;12.35;;
42124;SDS011;27787;44.594;11.046;2024-03-29T08:26:44;23.67;;;11.85;;
42124;SDS011;27787;44.594;11.046;2024-03-29T08:29:29;26.40;;;12.02;;
42124;SDS011;27787;44.594;11.046;2024-03-29T08:32:13;29.20;;;12.55;;
42124;SDS011;27787;44.594;11.046;2024-03-29T08:34:58;20.55;;;12.27;;
42124;SDS011;27787;44.594;11.046;2024-03-29T08:37:42;27.83;;;12.88;;
42124;SDS011;27787;44.594;11.046;2024-03-29T08:40:27;24.42;;;13.25;;
42124;SDS011;27787;44.594;11.046;2024-03-29T08:43:13;21.77;;;12.25;;
42124;SDS011;27787;44.594;11.046;2024-03-29T08:45:59;26.83;;;13.52;;
42124;SDS011;27787;44.594;11.046;2024-03-29T08:48:43;26.98;;;13.80;;
42124;SDS011;27787;44.594;11.046;2024-03-29T08:51:28;32.30;;;14.35;;
42124;SDS011;27787;44.594;11.046;2024-03-29T08:54:12;25.97;;;14.37;;
42124;SDS011;27787;44.594;11.046;2024-03-29T08:56:57;25.45;;;13.70;;
42124;SDS011;27787;44.594;11.046;2024-03-29T08:59:41;24.38;;;13.75;;
42124;SDS011;27787;44.594;11.046;2024-03-29T09:02:25;29.70;;;14.45;;
42124;SDS011;27787;44.594;11.046;2024-03-29T09:05:10;26.05;;;14.27;;
42124;SDS011;27787;44.594;11.046;2024-03-29T09:07:55;27.13;;;13.10;;
42124;SDS011;27787;44.594;11.046;2024-03-29T09:10:39;29.17;;;15.32;;
42124;SDS011;27787;44.594;11.046;2024-03-29T09:13:23;25.15;;;14.18;;
42124;SDS011;27787;44.594;11.046;2024-03-29T09:16:07;27.23;;;15.13;;
42124;SDS011;27787;44.594;11.046;2024-03-29T09:18:54;27.38;;;15.15;;
42124;SDS011;27787;44.594;11.046;2024-03-29T09:21:38;28.90;;;15.00;;
42124;SDS011;27787;44.594;11.046;2024-03-29T09:24:22;29.75;;;14.98;;
42124;SDS011;27787;44.594;11.046;2024-03-29T09:27:07;29.10;;;15.63;;
42124;SDS011;27787;44.594;11.046;2024-03-29T09:29:50;24.35;;;14.30;;
42124;SDS011;27787;44.594;11.046;2024-03-29T09:32:34;29.70;;;14.57;;
42124;SDS011;27787;44.594;11.046;2024-03-29T09:35:19;21.23;;;12.77;;
42124;SDS011;27787;44.594;11.046;2024-03-29T09:38:04;31.40;;;14.38;;
42124;SDS011;27787;44.594;11.046;2024-03-29T09:40:49;28.63;;;14.77;;
42124;SDS011;27787;44.594;11.046;2024-03-29T09:43:46;30.73;;;15.27;;
42124;SDS011;27787;44.594;11.046;2024-03-29T09:46:32;28.40;;;14.57;;
42124;SDS011;27787;44.594;11.046;2024-03-29T09:49:17;26.92;;;13.68;;
42124;SDS011;27787;44.594;11.046;2024-03-29T09:52:02;25.48;;;14.18;;
42124;SDS011;27787;44.594;11.046;2024-03-29T09:54:46;30.73;;;15.70;;
42124;SDS011;27787;44.594;11.046;2024-03-29T09:57:31;28.50;;;14.68;;
42124;SDS011;27787;44.594;11.046;2024-03-29T10:00:15;27.48;;;14.63;;
42124;SDS011;27787;44.594;11.046;2024-03-29T10:03:00;29.38;;;15.52;;
42124;SDS011;27787;44.594;11.046;2024-03-29T10:05:48;29.15;;;15.85;;
42124;SDS011;27787;44.594;11.046;2024-03-29T10:08:34;29.27;;;14.65;;
42124;SDS011;27787;44.594;11.046;2024-03-29T10:11:18;27.42;;;15.57;;
42124;SDS011;27787;44.594;11.046;2024-03-29T10:14:04;26.15;;;14.63;;
42124;SDS011;27787;44.594;11.046;2024-03-29T10:16:50;30.55;;;13.88;;
42124;SDS011;27787;44.594;11.046;2024-03-29T10:19:34;26.67;;;14.25;;
42124;SDS011;27787;44.594;11.046;2024-03-29T10:22:18;28.65;;;14.77;;
42124;SDS011;27787;44.594;11.046;2024-03-29T10:25:03;24.70;;;14.02;;
42124;SDS011;27787;44.594;11.046;2024-03-29T10:27:48;28.08;;;13.82;;
42124;SDS011;27787;44.594;11.046;2024-03-29T10:30:33;30.17;;;14.57;;
42124;SDS011;27787;44.594;11.046;2024-03-29T10:33:17;34.30;;;13.35;;
42124;SDS011;27787;44.594;11.046;2024-03-29T10:36:01;26.17;;;13.13;;
42124;SDS011;27787;44.594;11.046;2024-03-29T10:38:48;26.80;;;14.00;;
42124;SDS011;27787;44.594;11.046;2024-03-29T10:41:32;25.38;;;12.55;;
42124;SDS011;27787;44.594;11.046;2024-03-29T10:44:18;24.73;;;12.55;;
42124;SDS011;27787;44.594;11.046;2024-03-29T10:47:05;24.52;;;12.23;;
42124;SDS011;27787;44.594;11.046;2024-03-29T10:49:50;30.38;;;13.25;;
42124;SDS011;27787;44.594;11.046;2024-03-29T10:52:35;28.15;;;11.68;;
42124;SDS011;27787;44.594;11.046;2024-03-29T10:55:20;24.02;;;12.13;;
42124;SDS011;27787;44.594;11.046;2024-03-29T10:58:05;26.30;;;11.67;;
42124;SDS011;27787;44.594;11.046;2024-03-29T11:00:49;22.80;;;12.25;;
42124;SDS011;27787;44.594;11.046;2024-03-29T11:03:38;24.50;;;12.55;;
42124;SDS011;27787;44.594;11.046;2024-03-29T11:06:28;28.85;;;12.30;;
42124;SDS011;27787;44.594;11.046;2024-03-29T11:09:14;22.33;;;11.50;;
42124;SDS011;27787;44.594;11.046;2024-03-29T11:12:02;26.40;;;11.27;;
42124;SDS011;27787;44.594;11.046;2024-03-29T11:14:50;21.92;;;11.93;;
42124;SDS011;27787;44.594;11.046;2024-03-29T11:17:44;24.00;;;11.48;;
42124;SDS011;27787;44.594;11.046;2024-03-29T11:20:28;24.05;;;11.85;;
42124;SDS011;27787;44.594;11.046;2024-03-29T11:23:21;21.27;;;11.05;;
42124;SDS011;27787;44.594;11.046;2024-03-29T11:26:06;21.60;;;11.38;;
42124;SDS011;27787;44.594;11.046;2024-03-29T11:28:51;21.08;;;11.20;;
42124;SDS011;27787;44.594;11.046;2024-03-29T11:31:37;22.10;;;10.63;;
42124;SDS011;27787;44.594;11.046;2024-03-29T11:34:22;25.48;;;10.35;;
42124;SDS011;27787;44.594;11.046;2024-03-29T11:37:07;20.65;;;11.13;;
42124;SDS011;27787;44.594;11.046;2024-03-29T11:39:54;28.33;;;10.63;;
42124;SDS011;27787;44.594;11.046;2024-03-29T11:42:47;25.67;;;11.52;;
42124;SDS011;27787;44.594;11.046;2024-03-29T11:45:32;23.50;;;10.65;;
42124;SDS011;27787;44.594;11.046;2024-03-29T11:48:18;23.83;;;11.10;;
42124;SDS011;27787;44.594;11.046;2024-03-29T11:51:10;23.20;;;10.70;;
42124;SDS011;27787;44.594;11.046;2024-03-29T11:53:56;18.38;;;10.15;;
42124;SDS011;27787;44.594;11.046;2024-03-29T11:56:44;21.63;;;10.43;;
42124;SDS011;27787;44.594;11.046;2024-03-29T11:59:28;23.15;;;9.15;;
42124;SDS011;27787;44.594;11.046;2024-03-29T12:02:13;22.35;;;8.48;;
42124;SDS011;27787;44.594;11.046;2024-03-29T12:04:58;19.75;;;8.55;;
42124;SDS011;27787;44.594;11.046;2024-03-29T12:07:42;18.52;;;8.52;;
42124;SDS011;27787;44.594;11.046;2024-03-29T12:10:29;24.35;;;8.48;;
42124;SDS011;27787;44.594;11.046;2024-03-29T12:13:15;22.80;;;7.63;;
42124;SDS011;27787;44.594;11.046;2024-03-29T12:16:00;31.25;;;7.88;;
42124;SDS011;27787;44.594;11.046;2024-03-29T12:18:46;19.98;;;6.80;;
42124;SDS011;27787;44.594;11.046;2024-03-29T12:21:31;24.08;;;7.43;;
42124;SDS011;27787;44.594;11.046;2024-03-29T12:24:16;19.45;;;7.68;;
42124;SDS011;27787;44.594;11.046;2024-03-29T12:27:00;22.20;;;6.47;;
42124;SDS011;27787;44.594;11.046;2024-03-29T12:29:44;23.13;;;6.40;;
42124;SDS011;27787;44.594;11.046;2024-03-29T12:32:28;20.70;;;7.22;;
42124;SDS011;27787;44.594;11.046;2024-03-29T12:35:14;21.63;;;6.05;;
42124;SDS011;27787;44.594;11.046;2024-03-29T12:38:00;20.23;;;5.70;;
42124;SDS011;27787;44.594;11.046;2024-03-29T12:40:47;22.23;;;6.28;;
42124;SDS011;27787;44.594;11.046;2024-03-29T12:43:33;20.13;;;5.15;;
42124;SDS011;27787;44.594;11.046;2024-03-29T12:46:18;18.80;;;5.63;;
42124;SDS011;27787;44.594;11.046;2024-03-29T12:49:02;23.38;;;5.35;;
42124;SDS011;27787;44.594;11.046;2024-03-29T12:51:47;20.65;;;6.65;;
42124;SDS011;27787;44.594;11.046;2024-03-29T12:54:31;19.67;;;5.72;;
42124;SDS011;27787;44.594;11.046;2024-03-29T12:57:16;19.58;;;6.45;;
42124;SDS011;27787;44.594;11.046;2024-03-29T13:00:00;23.83;;;7.50;;
42124;SDS011;27787;44.594;11.046;2024-03-29T13:02:44;17.17;;;6.13;;
42124;SDS011;27787;44.594;11.046;2024-03-29T13:05:28;18.27;;;6.25;;
42124;SDS011;27787;44.594;11.046;2024-03-29T13:08:21;14.77;;;6.00;;
42124;SDS011;27787;44.594;11.046;2024-03-29T13:11:06;16.75;;;6.30;;
42124;SDS011;27787;44.594;11.046;2024-03-29T13:13:51;13.18;;;6.03;;
42124;SDS011;27787;44.594;11.046;2024-03-29T13:16:35;15.88;;;6.13;;
42124;SDS011;27787;44.594;11.046;2024-03-29T13:19:19;14.35;;;5.40;;
42124;SDS011;27787;44.594;11.046;2024-03-29T13:22:03;16.35;;;4.55;;
42124;SDS011;27787;44.594;11.046;2024-03-29T13:24:47;21.40;;;4.70;;
42124;SDS011;27787;44.594;11.046;2024-03-29T13:27:32;22.73;;;4.85;;
42124;SDS011;27787;44.594;11.046;2024-03-29T13:30:16;22.02;;;5.35;;
42124;SDS011;27787;44.594;11.046;2024-03-29T13:33:00;22.77;;;4.05;;
42124;SDS011;27787;44.594;11.046;2024-03-29T13:35:44;20.75;;;4.13;;
42124;SDS011;27787;44.594;11.046;2024-03-29T13:38:29;18.52;;;3.42;;
42124;SDS011;27787;44.594;11.046;2024-03-29T13:41:14;15.63;;;4.35;;
42124;SDS011;27787;44.594;11.046;2024-03-29T13:44:01;19.05;;;3.42;;
42124;SDS011;27787;44.594;11.046;2024-03-29T13:46:49;22.88;;;3.58;;
42124;SDS011;27787;44.594;11.046;2024-03-29T13:49:33;24.33;;;3.60;;
42124;SDS011;27787;44.594;11.046;2024-03-29T13:52:17;14.55;;;3.10;;
42124;SDS011;27787;44.594;11.046;2024-03-29T13:55:04;20.88;;;4.43;;
42124;SDS011;27787;44.594;11.046;2024-03-29T13:57:48;16.55;;;3.53;;
42124;SDS011;27787;44.594;11.046;2024-03-29T14:00:33;26.27;;;3.30;;
42124;SDS011;27787;44.594;11.046;2024-03-29T14:03:17;15.35;;;3.35;;
42124;SDS011;27787;44.594;11.046;2024-03-29T14:06:01;13.82;;;3.42;;
42124;SDS011;27787;44.594;11.046;2024-03-29T14:08:45;26.48;;;3.97;;
42124;SDS011;27787;44.594;11.046;2024-03-29T14:11:29;22.15;;;4.35;;
42124;SDS011;27787;44.594;11.046;2024-03-29T14:14:13;14.52;;;2.85;;
42124;SDS011;27787;44.594;11.046;2024-03-29T14:16:58;17.93;;;4.70;;
42124;SDS011;27787;44.594;11.046;2024-03-29T14:19:48;13.88;;;3.85;;
42124;SDS011;27787;44.594;11.046;2024-03-29T14:22:35;16.70;;;3.75;;
42124;SDS011;27787;44.594;11.046;2024-03-29T14:25:21;18.67;;;3.55;;
42124;SDS011;27787;44.594;11.046;2024-03-29T14:28:05;13.93;;;3.67;;
42124;SDS011;27787;44.594;11.046;2024-03-29T14:30:50;17.73;;;3.67;;
42124;SDS011;27787;44.594;11.046;2024-03-29T14:33:34;15.45;;;4.22;;
42124;SDS011;27787;44.594;11.046;2024-03-29T14:39:04;17.38;;;4.53;;
42124;SDS011;27787;44.594;11.046;2024-03-29T14:41:48;10.40;;;3.95;;
42124;SDS011;27787;44.594;11.046;2024-03-29T14:47:18;16.33;;;4.80;;
42124;SDS011;27787;44.594;11.046;2024-03-29T14:50:02;12.57;;;4.50;;
42124;SDS011;27787;44.594;11.046;2024-03-29T14:52:48;19.55;;;4.68;;
42124;SDS011;27787;44.594;11.046;2024-03-29T14:55:32;21.80;;;4.65;;
42124;SDS011;27787;44.594;11.046;2024-03-29T14:58:17;14.40;;;4.27;;
42124;SDS011;27787;44.594;11.046;2024-03-29T15:01:01;11.30;;;4.25;;
42124;SDS011;27787;44.594;11.046;2024-03-29T15:03:45;13.30;;;3.55;;
42124;SDS011;27787;44.594;11.046;2024-03-29T15:06:29;9.43;;;3.17;;
42124;SDS011;27787;44.594;11.046;2024-03-29T15:09:13;19.25;;;3.78;;
42124;SDS011;27787;44.594;11.046;2024-03-29T15:11:57;16.23;;;4.07;;
42124;SDS011;27787;44.594;11.046;2024-03-29T15:14:41;12.43;;;3.47;;
42124;SDS011;27787;44.594;11.046;2024-03-29T15:17:25;11.48;;;3.03;;
42124;SDS011;27787;44.594;11.046;2024-03-29T15:20:09;19.38;;;4.25;;
42124;SDS011;27787;44.594;11.046;2024-03-29T15:22:55;12.48;;;3.38;;
42124;SDS011;27787;44.594;11.046;2024-03-29T15:25:40;9.73;;;3.28;;
42124;SDS011;27787;44.594;11.046;2024-03-29T15:28:26;13.10;;;3.03;;
42124;SDS011;27787;44.594;11.046;2024-03-29T15:31:29;13.13;;;3.53;;
42124;SDS011;27787;44.594;11.046;2024-03-29T15:34:13;10.55;;;3.28;;
42124;SDS011;27787;44.594;11.046;2024-03-29T15:36:57;13.88;;;3.20;;
42124;SDS011;27787;44.594;11.046;2024-03-29T15:39:41;12.88;;;4.07;;
42124;SDS011;27787;44.594;11.046;2024-03-29T15:42:25;11.73;;;3.55;;
42124;SDS011;27787;44.594;11.046;2024-03-29T15:45:09;12.45;;;3.80;;
42124;SDS011;27787;44.594;11.046;2024-03-29T15:47:53;15.25;;;3.97;;
42124;SDS011;27787;44.594;11.046;2024-03-29T15:50:38;19.98;;;3.90;;
42124;SDS011;27787;44.594;11.046;2024-03-29T15:53:22;13.48;;;2.92;;
42124;SDS011;27787;44.594;11.046;2024-03-29T15:56:06;12.80;;;3.72;;
42124;SDS011;27787;44.594;11.046;2024-03-29T15:58:56;11.02;;;3.00;;
42124;SDS011;27787;44.594;11.046;2024-03-29T16:01:43;15.63;;;3.55;;